sensor_id;sensor_type;location;lat;lon;timestamp;pressure;altitude;pressure_sealevel;temperature;humidity
64827;BME280;51265;53.972;12.286;2023-11-21T00:01:25;100266.34;;;5.50;100.00
64827;BME280;51265;53.972;12.286;2023-11-21T00:03:51;100265.81;;;5.38;100.00
64827;BME280;51265;53.972;12.286;2023-11-21T00:06:20;100269.94;;;5.36;100.00
64827;BME280;51265;53.972;12.286;2023-11-21T00:08:46;100260.63;;;5.27;100.00
64827;BME280;51265;53.972;12.286;2023-11-21T00:11:13;100271.81;;;5.20;100.00
64827;BME280;51265;53.972;12.286;2023-11-21T00:13:39;100271.78;;;5.10;100.00
64827;BME280;51265;53.972;12.286;2023-11-21T00:16:05;100266.34;;;5.10;100.00
64827;BME280;51265;53.972;12.286;2023-11-21T00:18:31;100277.81;;;5.12;100.00
64827;BME280;51265;53.972;12.286;2023-11-21T00:20:58;100284.63;;;5.09;100.00
64827;BME280;51265;53.972;12.286;2023-11-21T00:23:24;100286.00;;;5.12;100.00
64827;BME280;51265;53.972;12.286;2023-11-21T00:25:51;100286.81;;;5.12;100.00
64827;BME280;51265;53.972;12.286;2023-11-21T00:28:17;100299.13;;;5.20;100.00
64827;BME280;51265;53.972;12.286;2023-11-21T00:30:43;100290.69;;;5.32;100.00
64827;BME280;51265;53.972;12.286;2023-11-21T00:33:09;100298.31;;;5.30;100.00
64827;BME280;51265;53.972;12.286;2023-11-21T00:35:36;100294.75;;;5.34;100.00
64827;BME280;51265;53.972;12.286;2023-11-21T00:38:02;100296.41;;;5.35;100.00
64827;BME280;51265;53.972;12.286;2023-11-21T00:40:29;100301.88;;;5.35;100.00
64827;BME280;51265;53.972;12.286;2023-11-21T00:42:55;100295.84;;;5.38;100.00
64827;BME280;51265;53.972;12.286;2023-11-21T00:45:21;100305.97;;;5.38;100.00
64827;BME280;51265;53.972;12.286;2023-11-21T00:47:48;100309.53;;;5.43;100.00
64827;BME280;51265;53.972;12.286;2023-11-21T00:50:14;100307.88;;;5.42;100.00
64827;BME280;51265;53.972;12.286;2023-11-21T00:52:41;100309.53;;;5.43;100.00
64827;BME280;51265;53.972;12.286;2023-11-21T00:55:08;100307.34;;;5.45;100.00
64827;BME280;51265;53.972;12.286;2023-11-21T00:57:35;100306.81;;;5.48;100.00
64827;BME280;51265;53.972;12.286;2023-11-21T01:00:01;100312.25;;;5.48;100.00
64827;BME280;51265;53.972;12.286;2023-11-21T01:02:27;100306.22;;;5.46;100.00
64827;BME280;51265;53.972;12.286;2023-11-21T01:04:53;100308.97;;;5.36;100.00
64827;BME280;51265;53.972;12.286;2023-11-21T01:07:19;100308.97;;;5.36;100.00
64827;BME280;51265;53.972;12.286;2023-11-21T01:09:46;100311.13;;;5.34;100.00
64827;BME280;51265;53.972;12.286;2023-11-21T01:12:12;100314.44;;;5.36;100.00
64827;BME280;51265;53.972;12.286;2023-11-21T01:14:39;100324.25;;;5.42;100.00
64827;BME280;51265;53.972;12.286;2023-11-21T01:17:06;100322.63;;;5.41;100.00
64827;BME280;51265;53.972;12.286;2023-11-21T01:19:32;100334.09;;;5.38;100.00
64827;BME280;51265;53.972;12.286;2023-11-21T01:21:58;100334.94;;;5.44;100.00
64827;BME280;51265;53.972;12.286;2023-11-21T01:24:24;100334.09;;;5.38;100.00
64827;BME280;51265;53.972;12.286;2023-11-21T01:26:50;100335.47;;;5.36;100.00
64827;BME280;51265;53.972;12.286;2023-11-21T01:29:17;100345.56;;;5.35;100.00
64827;BME280;51265;53.972;12.286;2023-11-21T01:31:43;100347.78;;;5.43;100.00
64827;BME280;51265;53.972;12.286;2023-11-21T01:34:09;100354.31;;;5.37;100.00
64827;BME280;51265;53.972;12.286;2023-11-21T01:36:35;100360.06;;;5.36;100.00
64827;BME280;51265;53.972;12.286;2023-11-21T01:39:02;100360.59;;;5.33;100.00
64827;BME280;51265;53.972;12.286;2023-11-21T01:41:34;100356.50;;;5.35;100.00
64827;BME280;51265;53.972;12.286;2023-11-21T01:44:02;100357.03;;;5.42;100.00
64827;BME280;51265;53.972;12.286;2023-11-21T01:46:28;100361.16;;;5.50;100.00
64827;BME280;51265;53.972;12.286;2023-11-21T01:48:55;100363.59;;;5.46;100.00
64827;BME280;51265;53.972;12.286;2023-11-21T01:51:21;100361.44;;;5.43;100.00
64827;BME280;51265;53.972;12.286;2023-11-21T01:53:47;100356.50;;;5.35;100.00
64827;BME280;51265;53.972;12.286;2023-11-21T01:56:14;100368.50;;;5.29;100.00
64827;BME280;51265;53.972;12.286;2023-11-21T01:58:40;100370.63;;;5.17;100.00
64827;BME280;51265;53.972;12.286;2023-11-21T02:01:07;100365.16;;;5.07;100.00
64827;BME280;51265;53.972;12.286;2023-11-21T02:03:33;100361.84;;;4.94;100.00
64827;BME280;51265;53.972;12.286;2023-11-21T02:06:00;100372.19;;;4.87;100.00
64827;BME280;51265;53.972;12.286;2023-11-21T02:08:26;100374.63;;;4.89;100.00
64827;BME280;51265;53.972;12.286;2023-11-21T02:10:53;100378.75;;;4.91;100.00
64827;BME280;51265;53.972;12.286;2023-11-21T02:13:19;100383.66;;;4.89;100.00
64827;BME280;51265;53.972;12.286;2023-11-21T02:15:45;100383.09;;;4.87;100.00
64827;BME280;51265;53.972;12.286;2023-11-21T02:18:11;100397.84;;;4.86;100.00
64827;BME280;51265;53.972;12.286;2023-11-21T02:20:37;100401.38;;;4.87;100.00
64827;BME280;51265;53.972;12.286;2023-11-21T02:23:05;100407.66;;;4.82;100.00
64827;BME280;51265;53.972;12.286;2023-11-21T02:25:32;100409.28;;;4.83;100.00
64827;BME280;51265;53.972;12.286;2023-11-21T02:28:00;100408.47;;;4.83;100.00
64827;BME280;51265;53.972;12.286;2023-11-21T02:30:27;100414.47;;;4.85;100.00
64827;BME280;51265;53.972;12.286;2023-11-21T02:33:02;100415.03;;;4.87;100.00
64827;BME280;51265;53.972;12.286;2023-11-21T02:35:29;100415.06;;;4.97;100.00
64827;BME280;51265;53.972;12.286;2023-11-21T02:37:58;100427.38;;;4.99;100.00
64827;BME280;51265;53.972;12.286;2023-11-21T02:40:24;100424.63;;;4.99;100.00
64827;BME280;51265;53.972;12.286;2023-11-21T02:42:52;100421.38;;;4.97;100.00
64827;BME280;51265;53.972;12.286;2023-11-21T02:45:20;100428.72;;;4.97;100.00
64827;BME280;51265;53.972;12.286;2023-11-21T02:47:47;100432.81;;;4.99;100.00
64827;BME280;51265;53.972;12.286;2023-11-21T02:50:14;100431.50;;;5.07;100.00
64827;BME280;51265;53.972;12.286;2023-11-21T02:52:41;100437.25;;;5.11;100.00
64827;BME280;51265;53.972;12.286;2023-11-21T02:55:07;100434.75;;;5.09;100.00
64827;BME280;51265;53.972;12.286;2023-11-21T02:57:33;100444.06;;;5.08;100.00
64827;BME280;51265;53.972;12.286;2023-11-21T03:00:00;100448.72;;;5.18;100.00
64827;BME280;51265;53.972;12.286;2023-11-21T03:02:26;100447.38;;;5.15;100.00
64827;BME280;51265;53.972;12.286;2023-11-21T03:04:53;100449.22;;;5.10;100.00
64827;BME280;51265;53.972;12.286;2023-11-21T03:07:19;100452.81;;;5.10;100.00
64827;BME280;51265;53.972;12.286;2023-11-21T03:09:45;100449.22;;;5.05;100.00
64827;BME280;51265;53.972;12.286;2023-11-21T03:12:12;100451.41;;;5.08;100.00
64827;BME280;51265;53.972;12.286;2023-11-21T03:14:39;100450.03;;;5.05;100.00
64827;BME280;51265;53.972;12.286;2023-11-21T03:17:05;100454.97;;;5.03;100.00
64827;BME280;51265;53.972;12.286;2023-11-21T03:19:32;100456.28;;;5.00;100.00
64827;BME280;51265;53.972;12.286;2023-11-21T03:21:58;100451.66;;;5.01;100.00
64827;BME280;51265;53.972;12.286;2023-11-21T03:24:25;100461.75;;;4.95;100.00
64827;BME280;51265;53.972;12.286;2023-11-21T03:26:52;100454.06;;;4.87;100.00
64827;BME280;51265;53.972;12.286;2023-11-21T03:29:18;100457.34;;;4.89;100.00
64827;BME280;51265;53.972;12.286;2023-11-21T03:31:44;100460.03;;;4.84;100.00
64827;BME280;51265;53.972;12.286;2023-11-21T03:34:24;100470.94;;;4.84;100.00
64827;BME280;51265;53.972;12.286;2023-11-21T03:36:52;100473.13;;;4.82;100.00
64827;BME280;51265;53.972;12.286;2023-11-21T03:39:20;100485.16;;;4.86;100.00
64827;BME280;51265;53.972;12.286;2023-11-21T03:41:46;100488.50;;;4.93;100.00
64827;BME280;51265;53.972;12.286;2023-11-21T03:44:13;100487.38;;;4.89;100.00
64827;BME280;51265;53.972;12.286;2023-11-21T03:46:39;100493.41;;;5.02;100.00
64827;BME280;51265;53.972;12.286;2023-11-21T03:49:05;100493.97;;;5.04;100.00
64827;BME280;51265;53.972;12.286;2023-11-21T03:51:31;100485.78;;;4.98;100.00
64827;BME280;51265;53.972;12.286;2023-11-21T03:53:57;100487.94;;;4.96;100.00
64827;BME280;51265;53.972;12.286;2023-11-21T03:56:24;100491.78;;;5.00;100.00
64827;BME280;51265;53.972;12.286;2023-11-21T03:58:50;100500.00;;;5.06;100.00
64827;BME280;51265;53.972;12.286;2023-11-21T04:01:23;100494.50;;;4.95;100.00
64827;BME280;51265;53.972;12.286;2023-11-21T04:03:50;100497.75;;;4.92;100.00
64827;BME280;51265;53.972;12.286;2023-11-21T04:06:17;100503.19;;;4.92;100.00
64827;BME280;51265;53.972;12.286;2023-11-21T04:08:44;100508.09;;;4.90;100.00
64827;BME280;51265;53.972;12.286;2023-11-21T04:11:11;100502.13;;;4.93;100.00
64827;BME280;51265;53.972;12.286;2023-11-21T04:13:40;100511.94;;;4.89;100.00
64827;BME280;51265;53.972;12.286;2023-11-21T04:16:07;100518.22;;;4.90;100.00
64827;BME280;51265;53.972;12.286;2023-11-21T04:18:36;100523.50;;;5.07;100.00
64827;BME280;51265;53.972;12.286;2023-11-21T04:21:02;100528.97;;;5.12;100.00
64827;BME280;51265;53.972;12.286;2023-11-21T04:23:29;100517.22;;;5.06;100.00
64827;BME280;51265;53.972;12.286;2023-11-21T04:25:56;100516.91;;;4.97;100.00
64827;BME280;51265;53.972;12.286;2023-11-21T04:28:23;100525.59;;;4.94;100.00
64827;BME280;51265;53.972;12.286;2023-11-21T04:30:50;100520.16;;;4.94;100.00
64827;BME280;51265;53.972;12.286;2023-11-21T04:33:16;100523.06;;;4.83;100.00
64827;BME280;51265;53.972;12.286;2023-11-21T04:35:42;100535.63;;;4.84;100.00
64827;BME280;51265;53.972;12.286;2023-11-21T04:38:08;100540.78;;;4.80;100.00
64827;BME280;51265;53.972;12.286;2023-11-21T04:40:35;100537.50;;;4.78;100.00
64827;BME280;51265;53.972;12.286;2023-11-21T04:43:01;100541.25;;;4.72;100.00
64827;BME280;51265;53.972;12.286;2023-11-21T04:45:27;100547.28;;;4.74;100.00
64827;BME280;51265;53.972;12.286;2023-11-21T04:47:54;100547.81;;;4.71;100.00
64827;BME280;51265;53.972;12.286;2023-11-21T04:50:20;100552.16;;;4.67;100.00
64827;BME280;51265;53.972;12.286;2023-11-21T04:52:46;100562.03;;;4.73;100.00
64827;BME280;51265;53.972;12.286;2023-11-21T04:55:13;100569.13;;;4.74;100.00
64827;BME280;51265;53.972;12.286;2023-11-21T04:57:39;100576.72;;;4.72;100.00
64827;BME280;51265;53.972;12.286;2023-11-21T05:00:09;100568.28;;;4.68;100.00
64827;BME280;51265;53.972;12.286;2023-11-21T05:02:35;100574.53;;;4.69;100.00
64827;BME280;51265;53.972;12.286;2023-11-21T05:05:02;100574.75;;;4.62;100.00
64827;BME280;51265;53.972;12.286;2023-11-21T05:07:32;100579.34;;;4.57;100.00
64827;BME280;51265;53.972;12.286;2023-11-21T05:09:58;100591.28;;;4.50;100.00
64827;BME280;51265;53.972;12.286;2023-11-21T05:12:24;100585.31;;;4.54;100.00
64827;BME280;51265;53.972;12.286;2023-11-21T05:14:51;100597.66;;;4.61;100.00
64827;BME280;51265;53.972;12.286;2023-11-21T05:17:17;100589.38;;;4.51;100.00
64827;BME280;51265;53.972;12.286;2023-11-21T05:19:43;100587.50;;;4.52;100.00
64827;BME280;51265;53.972;12.286;2023-11-21T05:22:11;100600.00;;;4.47;100.00
64827;BME280;51265;53.972;12.286;2023-11-21T05:24:38;100602.19;;;4.50;100.00
64827;BME280;51265;53.972;12.286;2023-11-21T05:27:07;100599.75;;;4.49;100.00
64827;BME280;51265;53.972;12.286;2023-11-21T05:29:35;100605.50;;;4.53;100.00
64827;BME280;51265;53.972;12.286;2023-11-21T05:32:03;100604.38;;;4.48;100.00
64827;BME280;51265;53.972;12.286;2023-11-21T05:34:29;100599.06;;;4.37;100.00
64827;BME280;51265;53.972;12.286;2023-11-21T05:36:55;100604.72;;;4.30;100.00
64827;BME280;51265;53.972;12.286;2023-11-21T05:39:24;100613.94;;;4.24;100.00
64827;BME280;51265;53.972;12.286;2023-11-21T05:41:50;100615.03;;;4.23;100.00
64827;BME280;51265;53.972;12.286;2023-11-21T05:44:16;100623.53;;;4.27;100.00
64827;BME280;51265;53.972;12.286;2023-11-21T05:46:42;100630.31;;;4.24;100.00
64827;BME280;51265;53.972;12.286;2023-11-21T05:49:09;100635.44;;;4.20;100.00
64827;BME280;51265;53.972;12.286;2023-11-21T05:51:36;100637.91;;;4.22;100.00
64827;BME280;51265;53.972;12.286;2023-11-21T05:54:03;100646.16;;;4.27;100.00
64827;BME280;51265;53.972;12.286;2023-11-21T05:56:29;100643.13;;;4.23;100.00
64827;BME280;51265;53.972;12.286;2023-11-21T05:58:55;100640.91;;;4.20;100.00
64827;BME280;51265;53.972;12.286;2023-11-21T06:01:21;100636.78;;;4.18;100.00
64827;BME280;51265;53.972;12.286;2023-11-21T06:03:47;100646.03;;;4.17;100.00
64827;BME280;51265;53.972;12.286;2023-11-21T06:06:15;100655.28;;;4.16;100.00
64827;BME280;51265;53.972;12.286;2023-11-21T06:08:41;100660.25;;;4.19;100.00
64827;BME280;51265;53.972;12.286;2023-11-21T06:11:08;100660.25;;;4.19;100.00
64827;BME280;51265;53.972;12.286;2023-11-21T06:13:37;100671.66;;;4.16;100.00
64827;BME280;51265;53.972;12.286;2023-11-21T06:16:04;100679.56;;;4.17;100.00
64827;BME280;51265;53.972;12.286;2023-11-21T06:18:30;100679.56;;;4.17;100.00
64827;BME280;51265;53.972;12.286;2023-11-21T06:20:56;100678.69;;;4.12;100.00
64827;BME280;51265;53.972;12.286;2023-11-21T06:23:22;100685.72;;;4.08;100.00
64827;BME280;51265;53.972;12.286;2023-11-21T06:25:49;100667.53;;;3.91;100.00
64827;BME280;51265;53.972;12.286;2023-11-21T06:28:15;100667.91;;;3.78;100.00
64827;BME280;51265;53.972;12.286;2023-11-21T06:30:43;100670.25;;;3.69;100.00
64827;BME280;51265;53.972;12.286;2023-11-21T06:33:11;100669.56;;;3.57;100.00
64827;BME280;51265;53.972;12.286;2023-11-21T06:35:37;100685.56;;;3.54;100.00
64827;BME280;51265;53.972;12.286;2023-11-21T06:38:03;100682.28;;;3.52;100.00
64827;BME280;51265;53.972;12.286;2023-11-21T06:40:30;100688.22;;;3.48;100.00
64827;BME280;51265;53.972;12.286;2023-11-21T06:42:56;100683.75;;;3.42;100.00
64827;BME280;51265;53.972;12.286;2023-11-21T06:45:24;100694.34;;;3.39;100.00
64827;BME280;51265;53.972;12.286;2023-11-21T06:47:50;100701.09;;;3.36;100.00
64827;BME280;51265;53.972;12.286;2023-11-21T06:50:17;100706.22;;;3.33;100.00
64827;BME280;51265;53.972;12.286;2023-11-21T06:52:43;100702.09;;;3.30;100.00
64827;BME280;51265;53.972;12.286;2023-11-21T06:55:09;100711.25;;;3.24;100.00
64827;BME280;51265;53.972;12.286;2023-11-21T06:57:36;100720.25;;;3.24;100.00
64827;BME280;51265;53.972;12.286;2023-11-21T07:00:04;100735.19;;;3.22;100.00
64827;BME280;51265;53.972;12.286;2023-11-21T07:02:31;100732.38;;;3.17;100.00
64827;BME280;51265;53.972;12.286;2023-11-21T07:04:57;100736.75;;;3.18;100.00
64827;BME280;51265;53.972;12.286;2023-11-21T07:07:23;100738.88;;;3.16;100.00
64827;BME280;51265;53.972;12.286;2023-11-21T07:09:49;100745.16;;;3.16;100.00
64827;BME280;51265;53.972;12.286;2023-11-21T07:12:15;100747.31;;;3.14;100.00
64827;BME280;51265;53.972;12.286;2023-11-21T07:14:41;100759.56;;;3.17;100.00
64827;BME280;51265;53.972;12.286;2023-11-21T07:17:11;100773.03;;;3.23;100.00
64827;BME280;51265;53.972;12.286;2023-11-21T07:19:38;100774.34;;;3.38;100.00
64827;BME280;51265;53.972;12.286;2023-11-21T07:22:04;100787.06;;;3.49;100.00
64827;BME280;51265;53.972;12.286;2023-11-21T07:24:32;100786.25;;;3.48;100.00
64827;BME280;51265;53.972;12.286;2023-11-21T07:26:58;100794.81;;;3.57;100.00
64827;BME280;51265;53.972;12.286;2023-11-21T07:29:24;100787.97;;;3.55;100.00
64827;BME280;51265;53.972;12.286;2023-11-21T07:31:56;100798.63;;;3.56;100.00
64827;BME280;51265;53.972;12.286;2023-11-21T07:34:22;100806.72;;;3.68;100.00
64827;BME280;51265;53.972;12.286;2023-11-21T07:36:48;100810.16;;;3.80;100.00
64827;BME280;51265;53.972;12.286;2023-11-21T07:39:14;100809.25;;;3.91;100.00
64827;BME280;51265;53.972;12.286;2023-11-21T07:41:42;100817.56;;;4.02;100.00
64827;BME280;51265;53.972;12.286;2023-11-21T07:44:15;100826.28;;;4.20;100.00
64827;BME280;51265;53.972;12.286;2023-11-21T07:46:42;100831.19;;;4.40;100.00
64827;BME280;51265;53.972;12.286;2023-11-21T07:49:08;100830.16;;;4.46;100.00
64827;BME280;51265;53.972;12.286;2023-11-21T07:51:35;100826.06;;;4.44;100.00
64827;BME280;51265;53.972;12.286;2023-11-21T07:54:01;100831.31;;;4.50;100.00
64827;BME280;51265;53.972;12.286;2023-11-21T07:56:27;100825.84;;;4.50;100.00
64827;BME280;51265;53.972;12.286;2023-11-21T07:58:53;100833.03;;;4.57;100.00
64827;BME280;51265;53.972;12.286;2023-11-21T08:01:20;100828.13;;;4.59;100.00
64827;BME280;51265;53.972;12.286;2023-11-21T08:03:46;100830.56;;;4.77;100.00
64827;BME280;51265;53.972;12.286;2023-11-21T08:06:13;100832.69;;;4.75;100.00
64827;BME280;51265;53.972;12.286;2023-11-21T08:08:39;100824.06;;;4.83;100.00
64827;BME280;51265;53.972;12.286;2023-11-21T08:11:05;100828.28;;;4.96;100.00
64827;BME280;51265;53.972;12.286;2023-11-21T08:13:31;100830.88;;;5.08;100.00
64827;BME280;51265;53.972;12.286;2023-11-21T08:15:58;100827.69;;;5.16;100.00
64827;BME280;51265;53.972;12.286;2023-11-21T08:18:31;100822.53;;;5.19;100.00
64827;BME280;51265;53.972;12.286;2023-11-21T08:20:57;100827.50;;;5.22;100.00
64827;BME280;51265;53.972;12.286;2023-11-21T08:23:23;100822.84;;;5.23;100.00
64827;BME280;51265;53.972;12.286;2023-11-21T08:25:53;100822.31;;;5.26;100.00
64827;BME280;51265;53.972;12.286;2023-11-21T08:28:19;100826.13;;;5.25;100.00
64827;BME280;51265;53.972;12.286;2023-11-21T08:30:48;100828.72;;;5.37;100.00
64827;BME280;51265;53.972;12.286;2023-11-21T08:33:14;100826.75;;;5.32;100.00
64827;BME280;51265;53.972;12.286;2023-11-21T08:35:40;100821.28;;;5.32;100.00
64827;BME280;51265;53.972;12.286;2023-11-21T08:38:06;100826.44;;;5.29;100.00
64827;BME280;51265;53.972;12.286;2023-11-21T08:40:34;100828.91;;;5.30;100.00
64827;BME280;51265;53.972;12.286;2023-11-21T08:43:01;100825.66;;;5.33;100.00
64827;BME280;51265;53.972;12.286;2023-11-21T08:45:30;100832.84;;;5.39;100.00
64827;BME280;51265;53.972;12.286;2023-11-21T08:47:57;100835.00;;;5.37;100.00
64827;BME280;51265;53.972;12.286;2023-11-21T08:50:23;100841.50;;;5.31;100.00
64827;BME280;51265;53.972;12.286;2023-11-21T08:52:49;100845.41;;;5.40;100.00
64827;BME280;51265;53.972;12.286;2023-11-21T08:55:15;100850.63;;;5.47;100.00
64827;BME280;51265;53.972;12.286;2023-11-21T08:57:43;100844.94;;;5.48;100.00
64827;BME280;51265;53.972;12.286;2023-11-21T09:00:10;100842.09;;;5.38;100.00
64827;BME280;51265;53.972;12.286;2023-11-21T09:02:40;100846.97;;;5.31;100.00
64827;BME280;51265;53.972;12.286;2023-11-21T09:05:08;100857.97;;;5.41;100.00
64827;BME280;51265;53.972;12.286;2023-11-21T09:07:36;100843.47;;;5.36;100.00
64827;BME280;51265;53.972;12.286;2023-11-21T09:10:03;100842.22;;;5.48;100.00
64827;BME280;51265;53.972;12.286;2023-11-21T09:12:29;100851.66;;;5.68;100.00
64827;BME280;51265;53.972;12.286;2023-11-21T09:14:58;100845.59;;;5.61;100.00
64827;BME280;51265;53.972;12.286;2023-11-21T09:17:24;100839.19;;;5.50;100.00
64827;BME280;51265;53.972;12.286;2023-11-21T09:19:50;100834.97;;;5.32;100.00
64827;BME280;51265;53.972;12.286;2023-11-21T09:22:17;100837.53;;;5.17;100.00
64827;BME280;51265;53.972;12.286;2023-11-21T09:24:43;100835.25;;;5.09;100.00
64827;BME280;51265;53.972;12.286;2023-11-21T09:27:10;100843.25;;;5.15;100.00
64827;BME280;51265;53.972;12.286;2023-11-21T09:29:37;100856.75;;;5.27;100.00
64827;BME280;51265;53.972;12.286;2023-11-21T09:32:05;100856.66;;;5.44;100.00
64827;BME280;51265;53.972;12.286;2023-11-21T09:34:39;100862.56;;;5.68;100.00
64827;BME280;51265;53.972;12.286;2023-11-21T09:37:06;100858.25;;;5.72;100.00
64827;BME280;51265;53.972;12.286;2023-11-21T09:39:33;100869.81;;;5.84;100.00
64827;BME280;51265;53.972;12.286;2023-11-21T09:42:10;100864.63;;;5.83;100.00
64827;BME280;51265;53.972;12.286;2023-11-21T09:44:46;100851.94;;;5.71;100.00
64827;BME280;51265;53.972;12.286;2023-11-21T09:47:15;100851.00;;;5.88;100.00
64827;BME280;51265;53.972;12.286;2023-11-21T09:49:47;100866.44;;;6.04;100.00
64827;BME280;51265;53.972;12.286;2023-11-21T09:52:22;100855.94;;;5.91;100.00
64827;BME280;51265;53.972;12.286;2023-11-21T09:54:52;100849.94;;;5.57;100.00
64827;BME280;51265;53.972;12.286;2023-11-21T09:57:20;100858.47;;;5.65;100.00
64827;BME280;51265;53.972;12.286;2023-11-21T09:59:50;100864.72;;;5.61;100.00
64827;BME280;51265;53.972;12.286;2023-11-21T10:02:17;100865.75;;;5.55;100.00
64827;BME280;51265;53.972;12.286;2023-11-21T10:04:45;100866.75;;;5.43;100.00
64827;BME280;51265;53.972;12.286;2023-11-21T10:07:13;100868.97;;;5.52;100.00
64827;BME280;51265;53.972;12.286;2023-11-21T10:09:42;100882.91;;;5.77;100.00
64827;BME280;51265;53.972;12.286;2023-11-21T10:12:09;100884.63;;;5.88;100.00
64827;BME280;51265;53.972;12.286;2023-11-21T10:14:40;100879.16;;;5.88;100.00
64827;BME280;51265;53.972;12.286;2023-11-21T10:17:08;100871.50;;;5.85;100.00
64827;BME280;51265;53.972;12.286;2023-11-21T10:19:36;100869.28;;;5.82;100.00
64827;BME280;51265;53.972;12.286;2023-11-21T10:22:02;100858.47;;;5.65;100.00
64827;BME280;51265;53.972;12.286;2023-11-21T10:24:29;100858.31;;;5.77;100.00
64827;BME280;51265;53.972;12.286;2023-11-21T10:26:55;100861.66;;;5.89;100.00
64827;BME280;51265;53.972;12.286;2023-11-21T10:29:21;100862.22;;;5.91;100.00
64827;BME280;51265;53.972;12.286;2023-11-21T10:31:50;100861.50;;;6.01;100.00
64827;BME280;51265;53.972;12.286;2023-11-21T10:34:18;100861.25;;;6.03;100.00
64827;BME280;51265;53.972;12.286;2023-11-21T10:36:45;100861.03;;;6.14;100.00
64827;BME280;51265;53.972;12.286;2023-11-21T10:39:17;100868.41;;;6.09;100.00
64827;BME280;51265;53.972;12.286;2023-11-21T10:41:45;100867.06;;;6.11;100.00
64827;BME280;51265;53.972;12.286;2023-11-21T10:44:14;100879.41;;;6.19;100.00
64827;BME280;51265;53.972;12.286;2023-11-21T10:46:50;100882.19;;;6.24;100.00
64827;BME280;51265;53.972;12.286;2023-11-21T10:49:18;100868.47;;;6.19;100.00
64827;BME280;51265;53.972;12.286;2023-11-21T10:51:45;100881.94;;;6.31;100.00
64827;BME280;51265;53.972;12.286;2023-11-21T10:54:11;100872.59;;;6.27;100.00
64827;BME280;51265;53.972;12.286;2023-11-21T10:56:39;100872.38;;;6.28;100.00
64827;BME280;51265;53.972;12.286;2023-11-21T10:59:09;100874.03;;;6.34;100.00
64827;BME280;51265;53.972;12.286;2023-11-21T11:01:37;100861.94;;;6.25;99.73
64827;BME280;51265;53.972;12.286;2023-11-21T11:04:06;100852.81;;;6.09;99.30
64827;BME280;51265;53.972;12.286;2023-11-21T11:06:35;100850.63;;;6.06;98.71
64827;BME280;51265;53.972;12.286;2023-11-21T11:09:04;100857.75;;;6.12;98.77
64827;BME280;51265;53.972;12.286;2023-11-21T11:11:32;100861.94;;;6.25;98.47
64827;BME280;51265;53.972;12.286;2023-11-21T11:13:58;100848.75;;;6.17;98.38
64827;BME280;51265;53.972;12.286;2023-11-21T11:16:27;100850.53;;;5.96;98.57
64827;BME280;51265;53.972;12.286;2023-11-21T11:18:54;100848.22;;;5.83;98.56
64827;BME280;51265;53.972;12.286;2023-11-21T11:21:31;100859.47;;;5.86;99.02
64827;BME280;51265;53.972;12.286;2023-11-21T11:24:22;100876.06;;;6.07;98.34
64827;BME280;51265;53.972;12.286;2023-11-21T11:27:35;100864.03;;;6.13;97.87
64827;BME280;51265;53.972;12.286;2023-11-21T11:32:52;100851.50;;;6.17;98.04
64827;BME280;51265;53.972;12.286;2023-11-21T11:35:29;100842.44;;;5.79;98.29
64827;BME280;51265;53.972;12.286;2023-11-21T11:37:59;100856.97;;;5.85;98.72
64827;BME280;51265;53.972;12.286;2023-11-21T11:40:39;100875.91;;;5.91;98.57
64827;BME280;51265;53.972;12.286;2023-11-21T11:43:06;100874.94;;;6.03;98.76
64827;BME280;51265;53.972;12.286;2023-11-21T11:45:34;100872.13;;;5.97;97.83
64827;BME280;51265;53.972;12.286;2023-11-21T11:48:01;100857.84;;;5.90;97.60
64827;BME280;51265;53.972;12.286;2023-11-21T11:50:29;100853.91;;;5.76;97.37
64827;BME280;51265;53.972;12.286;2023-11-21T11:53:12;100860.72;;;5.73;97.57
64827;BME280;51265;53.972;12.286;2023-11-21T11:55:38;100873.78;;;5.66;97.78
64827;BME280;51265;53.972;12.286;2023-11-21T11:58:06;100879.38;;;5.82;97.83
64827;BME280;51265;53.972;12.286;2023-11-21T12:03:00;100881.22;;;5.76;97.52
64827;BME280;51265;53.972;12.286;2023-11-21T12:05:30;100888.41;;;5.82;97.21
64827;BME280;51265;53.972;12.286;2023-11-21T12:08:03;100883.50;;;5.84;96.20
64827;BME280;51265;53.972;12.286;2023-11-21T12:10:31;100870.09;;;5.83;95.68
64827;BME280;51265;53.972;12.286;2023-11-21T12:12:59;100880.31;;;5.92;95.54
64827;BME280;51265;53.972;12.286;2023-11-21T12:15:26;100882.31;;;6.02;95.12
64827;BME280;51265;53.972;12.286;2023-11-21T12:17:54;100878.47;;;6.03;95.21
64827;BME280;51265;53.972;12.286;2023-11-21T12:20:22;100883.16;;;6.08;94.50
64827;BME280;51265;53.972;12.286;2023-11-21T12:22:57;100874.25;;;5.90;94.55
64827;BME280;51265;53.972;12.286;2023-11-21T12:25:28;100877.50;;;5.87;94.45
64827;BME280;51265;53.972;12.286;2023-11-21T12:27:56;100876.88;;;5.80;94.31
64827;BME280;51265;53.972;12.286;2023-11-21T12:30:25;100876.81;;;5.70;94.67
64827;BME280;51265;53.972;12.286;2023-11-21T12:32:55;100877.75;;;5.54;94.82
64827;BME280;51265;53.972;12.286;2023-11-21T12:35:25;100885.88;;;5.43;94.92
64827;BME280;51265;53.972;12.286;2023-11-21T12:37:54;100889.34;;;5.39;95.95
64827;BME280;51265;53.972;12.286;2023-11-21T12:40:20;100898.59;;;5.33;95.81
64827;BME280;51265;53.972;12.286;2023-11-21T12:42:52;100899.81;;;5.20;95.91
64827;BME280;51265;53.972;12.286;2023-11-21T12:45:24;100900.22;;;5.07;96.63
64827;BME280;51265;53.972;12.286;2023-11-21T12:48:02;100917.09;;;5.04;95.62